sensor_id;sensor_type;location;lat;lon;timestamp;pressure;altitude;pressure_sealevel;temperature;humidity
34979;BME280;21185;50.978;13.720;2022-08-21T00:01:19;98221.00;;;19.46;85.78
34979;BME280;21185;50.978;13.720;2022-08-21T00:06:22;98222.03;;;19.45;85.81
34979;BME280;21185;50.978;13.720;2022-08-21T00:11:25;98220.63;;;19.42;85.63
34979;BME280;21185;50.978;13.720;2022-08-21T00:16:28;98220.50;;;19.37;85.72
34979;BME280;21185;50.978;13.720;2022-08-21T00:21:30;98237.09;;;19.38;85.82
34979;BME280;21185;50.978;13.720;2022-08-21T00:26:32;98222.53;;;19.35;86.09
34979;BME280;21185;50.978;13.720;2022-08-21T00:31:35;98217.28;;;19.35;86.05
34979;BME280;21185;50.978;13.720;2022-08-21T00:36:37;98219.91;;;19.35;86.10
34979;BME280;21185;50.978;13.720;2022-08-21T00:41:40;98213.63;;;19.36;85.89
34979;BME280;21185;50.978;13.720;2022-08-21T00:46:43;98215.22;;;19.37;86.08
34979;BME280;21185;50.978;13.720;2022-08-21T00:51:49;98228.97;;;19.39;86.29
34979;BME280;21185;50.978;13.720;2022-08-21T00:57:00;98219.47;;;19.38;86.20
34979;BME280;21185;50.978;13.720;2022-08-21T01:02:05;98221.66;;;19.41;86.09
34979;BME280;21185;50.978;13.720;2022-08-21T01:07:09;98211.13;;;19.41;86.07
34979;BME280;21185;50.978;13.720;2022-08-21T01:12:11;98222.25;;;19.44;86.48
34979;BME280;21185;50.978;13.720;2022-08-21T01:17:15;98216.41;;;19.41;86.49
34979;BME280;21185;50.978;13.720;2022-08-21T01:22:17;98223.28;;;19.42;86.33
34979;BME280;21185;50.978;13.720;2022-08-21T01:27:21;98216.63;;;19.40;86.42
34979;BME280;21185;50.978;13.720;2022-08-21T01:32:23;98230.22;;;19.37;86.75
34979;BME280;21185;50.978;13.720;2022-08-21T01:37:25;98244.84;;;19.33;86.61
34979;BME280;21185;50.978;13.720;2022-08-21T01:42:27;98247.09;;;19.29;86.67
34979;BME280;21185;50.978;13.720;2022-08-21T01:47:29;98253.00;;;19.25;86.58
34979;BME280;21185;50.978;13.720;2022-08-21T01:52:31;98252.63;;;19.21;86.65
34979;BME280;21185;50.978;13.720;2022-08-21T01:57:33;98253.06;;;19.18;86.58
34979;BME280;21185;50.978;13.720;2022-08-21T02:02:36;98254.69;;;19.19;86.38
34979;BME280;21185;50.978;13.720;2022-08-21T02:07:47;98253.88;;;19.19;86.30
34979;BME280;21185;50.978;13.720;2022-08-21T02:12:50;98249.84;;;19.16;86.62
34979;BME280;21185;50.978;13.720;2022-08-21T02:17:54;98247.00;;;19.18;86.63
34979;BME280;21185;50.978;13.720;2022-08-21T02:22:56;98245.41;;;19.17;86.14
34979;BME280;21185;50.978;13.720;2022-08-21T02:28:02;98235.69;;;19.17;86.38
34979;BME280;21185;50.978;13.720;2022-08-21T02:33:06;98235.69;;;19.17;85.92
34979;BME280;21185;50.978;13.720;2022-08-21T02:38:12;98233.28;;;19.16;85.93
34979;BME280;21185;50.978;13.720;2022-08-21T02:43:15;98230.06;;;19.14;86.14
34979;BME280;21185;50.978;13.720;2022-08-21T02:48:21;98233.34;;;19.09;85.85
34979;BME280;21185;50.978;13.720;2022-08-21T02:53:24;98229.31;;;19.06;86.19
34979;BME280;21185;50.978;13.720;2022-08-21T02:58:29;98229.53;;;19.05;86.00
34979;BME280;21185;50.978;13.720;2022-08-21T03:03:33;98223.25;;;19.06;85.98
34979;BME280;21185;50.978;13.720;2022-08-21T03:08:37;98226.91;;;19.05;86.00
34979;BME280;21185;50.978;13.720;2022-08-21T03:13:39;98227.72;;;19.05;86.05
34979;BME280;21185;50.978;13.720;2022-08-21T03:18:41;98225.28;;;19.04;86.24
34979;BME280;21185;50.978;13.720;2022-08-21T03:23:43;98226.09;;;19.04;86.19
34979;BME280;21185;50.978;13.720;2022-08-21T03:28:45;98226.91;;;19.05;86.28
34979;BME280;21185;50.978;13.720;2022-08-21T03:33:47;98222.44;;;19.05;86.03
34979;BME280;21185;50.978;13.720;2022-08-21T03:38:49;98225.06;;;19.05;86.15
34979;BME280;21185;50.978;13.720;2022-08-21T03:43:51;98222.66;;;19.04;86.51
34979;BME280;21185;50.978;13.720;2022-08-21T03:48:53;98236.41;;;19.06;86.10
34979;BME280;21185;50.978;13.720;2022-08-21T03:53:55;98249.56;;;19.06;86.46
34979;BME280;21185;50.978;13.720;2022-08-21T03:58:57;98256.41;;;19.07;86.40
34979;BME280;21185;50.978;13.720;2022-08-21T04:03:59;98258.69;;;19.03;86.17
34979;BME280;21185;50.978;13.720;2022-08-21T04:09:01;98258.31;;;19.00;86.40
34979;BME280;21185;50.978;13.720;2022-08-21T04:14:03;98256.91;;;18.97;86.54
34979;BME280;21185;50.978;13.720;2022-08-21T04:19:06;98256.09;;;18.97;86.60
34979;BME280;21185;50.978;13.720;2022-08-21T04:24:10;98258.94;;;18.95;86.41
34979;BME280;21185;50.978;13.720;2022-08-21T04:29:11;98257.34;;;18.94;86.66
34979;BME280;21185;50.978;13.720;2022-08-21T04:34:13;98266.63;;;18.97;86.65
34979;BME280;21185;50.978;13.720;2022-08-21T04:39:15;98262.38;;;18.96;86.57
34979;BME280;21185;50.978;13.720;2022-08-21T04:44:18;98256.91;;;18.97;86.54
34979;BME280;21185;50.978;13.720;2022-08-21T04:49:20;98258.53;;;18.98;86.30
34979;BME280;21185;50.978;13.720;2022-08-21T04:54:22;98258.31;;;19.00;86.34
34979;BME280;21185;50.978;13.720;2022-08-21T04:59:31;98258.09;;;19.01;86.48
34979;BME280;21185;50.978;13.720;2022-08-21T05:04:39;98272.63;;;19.04;86.52
34979;BME280;21185;50.978;13.720;2022-08-21T05:09:43;98276.88;;;19.05;86.53
34979;BME280;21185;50.978;13.720;2022-08-21T05:14:45;98270.59;;;19.06;86.83
34979;BME280;21185;50.978;13.720;2022-08-21T05:19:48;98271.97;;;19.08;86.45
34979;BME280;21185;50.978;13.720;2022-08-21T05:24:50;98270.16;;;19.09;86.84
34979;BME280;21185;50.978;13.720;2022-08-21T05:29:52;98270.59;;;19.06;86.92
34979;BME280;21185;50.978;13.720;2022-08-21T05:34:54;98275.63;;;19.07;86.88
34979;BME280;21185;50.978;13.720;2022-08-21T05:39:56;98269.94;;;19.11;87.09
34979;BME280;21185;50.978;13.720;2022-08-21T05:45:19;98272.94;;;19.14;86.82
34979;BME280;21185;50.978;13.720;2022-08-21T05:50:41;98262.22;;;19.16;86.90
34979;BME280;21185;50.978;13.720;2022-08-21T05:55:44;98273.69;;;19.21;87.04
34979;BME280;21185;50.978;13.720;2022-08-21T06:00:49;98275.28;;;19.22;87.39
34979;BME280;21185;50.978;13.720;2022-08-21T06:05:53;98277.94;;;19.22;87.19
34979;BME280;21185;50.978;13.720;2022-08-21T06:10:56;98279.31;;;19.25;87.54
34979;BME280;21185;50.978;13.720;2022-08-21T06:16:11;98285.38;;;19.25;87.84
34979;BME280;21185;50.978;13.720;2022-08-21T06:21:17;98295.47;;;19.28;87.64
34979;BME280;21185;50.978;13.720;2022-08-21T06:26:19;98276.03;;;19.29;87.67
34979;BME280;21185;50.978;13.720;2022-08-21T06:31:24;98278.22;;;19.32;87.78
34979;BME280;21185;50.978;13.720;2022-08-21T06:36:27;98279.25;;;19.31;87.45
34979;BME280;21185;50.978;13.720;2022-08-21T06:41:29;98280.50;;;19.29;87.85
34979;BME280;21185;50.978;13.720;2022-08-21T06:46:39;98275.16;;;19.35;88.14
34979;BME280;21185;50.978;13.720;2022-08-21T06:51:41;98280.13;;;19.44;88.08
34979;BME280;21185;50.978;13.720;2022-08-21T06:56:43;98273.59;;;19.53;87.93
34979;BME280;21185;50.978;13.720;2022-08-21T07:01:45;98271.91;;;19.58;87.98
34979;BME280;21185;50.978;13.720;2022-08-21T07:06:48;98274.25;;;19.66;88.15
34979;BME280;21185;50.978;13.720;2022-08-21T07:11:53;98273.16;;;19.74;88.20
34979;BME280;21185;50.978;13.720;2022-08-21T07:16:56;98279.56;;;19.78;88.46
34979;BME280;21185;50.978;13.720;2022-08-21T07:22:00;98276.94;;;19.78;88.23
34979;BME280;21185;50.978;13.720;2022-08-21T07:27:03;98273.16;;;19.74;88.35
34979;BME280;21185;50.978;13.720;2022-08-21T07:32:10;98276.38;;;19.76;88.54
34979;BME280;21185;50.978;13.720;2022-08-21T07:37:12;98284.41;;;19.81;88.19
34979;BME280;21185;50.978;13.720;2022-08-21T07:42:17;98282.72;;;19.87;88.46
34979;BME280;21185;50.978;13.720;2022-08-21T07:47:19;98288.34;;;19.90;88.44
34979;BME280;21185;50.978;13.720;2022-08-21T07:52:42;98292.00;;;19.89;88.27
34979;BME280;21185;50.978;13.720;2022-08-21T07:57:46;98294.13;;;19.81;88.16
34979;BME280;21185;50.978;13.720;2022-08-21T08:02:51;98306.94;;;19.77;88.26
34979;BME280;21185;50.978;13.720;2022-08-21T08:07:53;98308.97;;;19.75;88.57
34979;BME280;21185;50.978;13.720;2022-08-21T08:12:55;98309.56;;;19.77;88.46
34979;BME280;21185;50.978;13.720;2022-08-21T08:17:58;98310.72;;;19.81;88.60
34979;BME280;21185;50.978;13.720;2022-08-21T08:23:00;98314.97;;;19.82;88.35
34979;BME280;21185;50.978;13.720;2022-08-21T08:28:04;98313.94;;;19.83;88.09
34979;BME280;21185;50.978;13.720;2022-08-21T08:33:18;98320.16;;;19.89;88.28
34979;BME280;21185;50.978;13.720;2022-08-21T08:38:22;98312.19;;;19.95;88.28
34979;BME280;21185;50.978;13.720;2022-08-21T08:43:30;98315.53;;;20.02;88.31
34979;BME280;21185;50.978;13.720;2022-08-21T08:48:51;98310.41;;;20.08;88.12
34979;BME280;21185;50.978;13.720;2022-08-21T08:54:02;98316.63;;;20.13;87.98
34979;BME280;21185;50.978;13.720;2022-08-21T08:59:15;98323.06;;;20.17;88.09
34979;BME280;21185;50.978;13.720;2022-08-21T09:04:24;98324.88;;;20.17;87.99
34979;BME280;21185;50.978;13.720;2022-08-21T09:15:01;98314.72;;;20.20;87.95
34979;BME280;21185;50.978;13.720;2022-08-21T09:25:32;98301.59;;;20.32;87.85
34979;BME280;21185;50.978;13.720;2022-08-21T09:30:35;98305.25;;;20.31;87.27
34979;BME280;21185;50.978;13.720;2022-08-21T09:35:48;98302.16;;;20.34;87.13
34979;BME280;21185;50.978;13.720;2022-08-21T09:40:58;98301.94;;;20.35;86.81
34979;BME280;21185;50.978;13.720;2022-08-21T09:46:20;98295.00;;;20.41;86.56
34979;BME280;21185;50.978;13.720;2022-08-21T09:51:26;98296.06;;;20.52;86.56
34979;BME280;21185;50.978;13.720;2022-08-21T09:56:37;98302.38;;;20.51;85.70
34979;BME280;21185;50.978;13.720;2022-08-21T10:02:01;98295.72;;;20.48;85.91
34979;BME280;21185;50.978;13.720;2022-08-21T10:07:09;98300.97;;;20.48;85.15
34979;BME280;21185;50.978;13.720;2022-08-21T10:12:23;98306.25;;;20.48;84.60
34979;BME280;21185;50.978;13.720;2022-08-21T10:17:43;98299.38;;;20.47;84.54
34979;BME280;21185;50.978;13.720;2022-08-21T10:38:48;98292.16;;;20.54;82.91
34979;BME280;21185;50.978;13.720;2022-08-21T10:54:57;98295.66;;;20.78;82.96
34979;BME280;21185;50.978;13.720;2022-08-21T11:00:10;98297.94;;;20.86;82.69
34979;BME280;21185;50.978;13.720;2022-08-21T11:05:19;98298.28;;;20.90;82.64
34979;BME280;21185;50.978;13.720;2022-08-21T11:10:45;98297.38;;;20.96;81.37
34979;BME280;21185;50.978;13.720;2022-08-21T11:16:07;98298.06;;;21.03;81.53
34979;BME280;21185;50.978;13.720;2022-08-21T11:26:41;98290.38;;;21.13;80.69
34979;BME280;21185;50.978;13.720;2022-08-21T11:37:19;98292.03;;;21.38;80.20
34979;BME280;21185;50.978;13.720;2022-08-21T11:42:35;98291.44;;;21.47;79.69
34979;BME280;21185;50.978;13.720;2022-08-21T11:48:12;98287.53;;;21.50;78.79
34979;BME280;21185;50.978;13.720;2022-08-21T11:58:38;98277.97;;;21.72;78.75
34979;BME280;21185;50.978;13.720;2022-08-21T12:03:52;98283.69;;;21.81;77.85
34979;BME280;21185;50.978;13.720;2022-08-21T12:09:03;98281.28;;;21.79;77.48
34979;BME280;21185;50.978;13.720;2022-08-21T12:19:12;98274.47;;;21.83;76.74
34979;BME280;21185;50.978;13.720;2022-08-21T12:24:18;98268.25;;;21.89;76.13
34979;BME280;21185;50.978;13.720;2022-08-21T12:29:32;98268.06;;;21.79;74.79
34979;BME280;21185;50.978;13.720;2022-08-21T12:34:37;98272.94;;;21.59;74.08
34979;BME280;21185;50.978;13.720;2022-08-21T12:39:44;98275.59;;;21.47;73.68
34979;BME280;21185;50.978;13.720;2022-08-21T12:44:54;98268.47;;;21.48;73.62
34979;BME280;21185;50.978;13.720;2022-08-21T12:50:13;98270.53;;;21.46;72.99
34979;BME280;21185;50.978;13.720;2022-08-21T12:55:30;98268.47;;;21.48;73.44
34979;BME280;21185;50.978;13.720;2022-08-21T13:00:32;98268.00;;;21.51;73.67
34979;BME280;21185;50.978;13.720;2022-08-21T13:05:35;98259.72;;;21.59;73.95
34979;BME280;21185;50.978;13.720;2022-08-21T13:10:40;98263.31;;;21.53;73.13
34979;BME280;21185;50.978;13.720;2022-08-21T13:15:43;98258.59;;;21.55;73.09
34979;BME280;21185;50.978;13.720;2022-08-21T13:20:49;98257.00;;;21.54;72.67
34979;BME280;21185;50.978;13.720;2022-08-21T13:25:53;98250.69;;;21.55;72.11
34979;BME280;21185;50.978;13.720;2022-08-21T13:30:56;98257.56;;;21.56;72.01
34979;BME280;21185;50.978;13.720;2022-08-21T13:36:07;98253.53;;;21.53;71.25
34979;BME280;21185;50.978;13.720;2022-08-21T13:41:26;98257.19;;;21.64;71.02
34979;BME280;21185;50.978;13.720;2022-08-21T13:46:32;98253.53;;;21.65;70.56
34979;BME280;21185;50.978;13.720;2022-08-21T13:51:36;98256.19;;;21.53;68.65
34979;BME280;21185;50.978;13.720;2022-08-21T13:56:45;98258.72;;;21.48;68.65
34979;BME280;21185;50.978;13.720;2022-08-21T14:07:15;98252.59;;;21.71;68.71
34979;BME280;21185;50.978;13.720;2022-08-21T14:12:28;98251.66;;;21.77;68.80
34979;BME280;21185;50.978;13.720;2022-08-21T14:17:36;98255.31;;;21.76;68.55
34979;BME280;21185;50.978;13.720;2022-08-21T14:22:44;98242.41;;;21.91;68.62
34979;BME280;21185;50.978;13.720;2022-08-21T14:27:52;98241.72;;;21.96;66.43
34979;BME280;21185;50.978;13.720;2022-08-21T14:32:55;98242.59;;;22.02;66.83
34979;BME280;21185;50.978;13.720;2022-08-21T14:37:57;98239.06;;;22.08;66.65
34979;BME280;21185;50.978;13.720;2022-08-21T14:42:59;98231.13;;;22.08;66.94
34979;BME280;21185;50.978;13.720;2022-08-21T14:48:02;98240.66;;;21.97;65.74
34979;BME280;21185;50.978;13.720;2022-08-21T14:53:05;98256.91;;;21.89;65.76
34979;BME280;21185;50.978;13.720;2022-08-21T14:58:14;98247.50;;;21.81;65.66
34979;BME280;21185;50.978;13.720;2022-08-21T15:03:16;98247.84;;;21.85;65.54
34979;BME280;21185;50.978;13.720;2022-08-21T15:08:19;98249.06;;;21.94;65.88
34979;BME280;21185;50.978;13.720;2022-08-21T15:13:21;98248.00;;;22.07;64.93
34979;BME280;21185;50.978;13.720;2022-08-21T15:18:29;98246.03;;;22.14;64.79
34979;BME280;21185;50.978;13.720;2022-08-21T15:23:31;98242.53;;;22.25;65.19
34979;BME280;21185;50.978;13.720;2022-08-21T15:28:34;98232.13;;;22.35;63.99
34979;BME280;21185;50.978;13.720;2022-08-21T15:33:36;98235.66;;;22.41;63.67
34979;BME280;21185;50.978;13.720;2022-08-21T15:38:38;98240.00;;;22.47;63.34
34979;BME280;21185;50.978;13.720;2022-08-21T15:43:45;98241.59;;;22.48;63.16
34979;BME280;21185;50.978;13.720;2022-08-21T15:48:48;98238.88;;;22.43;62.97
34979;BME280;21185;50.978;13.720;2022-08-21T15:53:50;98245.25;;;22.30;62.35
34979;BME280;21185;50.978;13.720;2022-08-21T15:58:53;98235.06;;;22.22;62.54
34979;BME280;21185;50.978;13.720;2022-08-21T16:04:00;98240.19;;;22.12;62.44
34979;BME280;21185;50.978;13.720;2022-08-21T16:09:04;98233.22;;;21.94;62.33
34979;BME280;21185;50.978;13.720;2022-08-21T16:14:06;98234.19;;;21.76;62.80
34979;BME280;21185;50.978;13.720;2022-08-21T16:19:09;98231.72;;;21.58;62.83
34979;BME280;21185;50.978;13.720;2022-08-21T16:24:12;98237.03;;;21.46;63.25
34979;BME280;21185;50.978;13.720;2022-08-21T16:29:14;98243.38;;;21.33;62.78
34979;BME280;21185;50.978;13.720;2022-08-21T16:34:17;98238.91;;;21.22;63.29
34979;BME280;21185;50.978;13.720;2022-08-21T16:39:21;98237.63;;;21.13;63.36
34979;BME280;21185;50.978;13.720;2022-08-21T16:44:23;98233.03;;;21.09;63.21
34979;BME280;21185;50.978;13.720;2022-08-21T16:49:26;98226.72;;;21.10;63.38
34979;BME280;21185;50.978;13.720;2022-08-21T16:54:28;98227.28;;;21.12;63.79
34979;BME280;21185;50.978;13.720;2022-08-21T16:59:31;98225.22;;;21.14;63.72
34979;BME280;21185;50.978;13.720;2022-08-21T17:04:34;98216.28;;;21.15;64.02
34979;BME280;21185;50.978;13.720;2022-08-21T17:09:36;98219.16;;;21.13;63.98
34979;BME280;21185;50.978;13.720;2022-08-21T17:14:38;98224.88;;;21.10;63.99
34979;BME280;21185;50.978;13.720;2022-08-21T17:19:41;98219.03;;;21.08;64.36
34979;BME280;21185;50.978;13.720;2022-08-21T17:24:42;98221.78;;;21.01;64.02
34979;BME280;21185;50.978;13.720;2022-08-21T17:29:45;98228.00;;;20.95;64.34
34979;BME280;21185;50.978;13.720;2022-08-21T17:34:47;98230.75;;;20.89;64.50
34979;BME280;21185;50.978;13.720;2022-08-21T17:39:49;98230.06;;;20.82;64.73
34979;BME280;21185;50.978;13.720;2022-08-21T17:44:52;98241.53;;;20.76;64.46
34979;BME280;21185;50.978;13.720;2022-08-21T17:49:54;98236.59;;;20.67;64.51
34979;BME280;21185;50.978;13.720;2022-08-21T17:54:56;98239.56;;;20.59;64.92
34979;BME280;21185;50.978;13.720;2022-08-21T17:59:58;98236.47;;;20.51;65.24
34979;BME280;21185;50.978;13.720;2022-08-21T18:05:01;98241.03;;;20.44;65.26
34979;BME280;21185;50.978;13.720;2022-08-21T18:10:07;98240.53;;;20.35;65.27
34979;BME280;21185;50.978;13.720;2022-08-21T18:15:14;98244.06;;;20.29;64.95
34979;BME280;21185;50.978;13.720;2022-08-21T18:20:19;98240.94;;;20.20;65.29
34979;BME280;21185;50.978;13.720;2022-08-21T18:25:22;98239.44;;;20.13;65.19
34979;BME280;21185;50.978;13.720;2022-08-21T18:30:24;98246.03;;;20.03;65.23
34979;BME280;21185;50.978;13.720;2022-08-21T18:35:26;98248.97;;;19.95;65.58
34979;BME280;21185;50.978;13.720;2022-08-21T18:40:35;98248.25;;;19.88;65.63
34979;BME280;21185;50.978;13.720;2022-08-21T18:45:39;98256.47;;;19.80;65.56
34979;BME280;21185;50.978;13.720;2022-08-21T18:50:43;98246.81;;;19.74;65.56
34979;BME280;21185;50.978;13.720;2022-08-21T18:55:48;98255.59;;;19.68;65.60
34979;BME280;21185;50.978;13.720;2022-08-21T19:00:51;98267.59;;;19.64;65.39
34979;BME280;21185;50.978;13.720;2022-08-21T19:05:54;98273.75;;;19.58;65.28
34979;BME280;21185;50.978;13.720;2022-08-21T19:10:57;98275.41;;;19.52;65.27
34979;BME280;21185;50.978;13.720;2022-08-21T19:16:03;98278.69;;;19.48;65.59
34979;BME280;21185;50.978;13.720;2022-08-21T19:21:10;98270.63;;;19.42;65.46
34979;BME280;21185;50.978;13.720;2022-08-21T19:26:12;98281.59;;;19.39;65.41
34979;BME280;21185;50.978;13.720;2022-08-21T19:31:18;98275.38;;;19.34;65.61
34979;BME280;21185;50.978;13.720;2022-08-21T19:36:24;98281.28;;;19.29;65.57
34979;BME280;21185;50.978;13.720;2022-08-21T19:41:30;98282.16;;;19.23;65.53
34979;BME280;21185;50.978;13.720;2022-08-21T19:46:35;98276.53;;;19.20;65.78
34979;BME280;21185;50.978;13.720;2022-08-21T19:51:38;98274.56;;;19.15;65.77
34979;BME280;21185;50.978;13.720;2022-08-21T19:56:41;98282.28;;;19.10;65.63
34979;BME280;21185;50.978;13.720;2022-08-21T20:01:43;98277.47;;;19.07;65.92
34979;BME280;21185;50.978;13.720;2022-08-21T20:06:45;98274.25;;;19.05;66.05
34979;BME280;21185;50.978;13.720;2022-08-21T20:11:53;98270.44;;;19.01;65.79
34979;BME280;21185;50.978;13.720;2022-08-21T20:17:00;98262.97;;;18.98;66.04
34979;BME280;21185;50.978;13.720;2022-08-21T20:22:05;98261.00;;;18.93;65.89
34979;BME280;21185;50.978;13.720;2022-08-21T20:27:24;98263.03;;;18.91;65.57
34979;BME280;21185;50.978;13.720;2022-08-21T20:32:27;98259.44;;;18.86;65.71
34979;BME280;21185;50.978;13.720;2022-08-21T20:37:35;98262.50;;;18.83;65.38
34979;BME280;21185;50.978;13.720;2022-08-21T20:42:40;98266.56;;;18.79;65.29
34979;BME280;21185;50.978;13.720;2022-08-21T20:47:46;98267.00;;;18.75;65.31
34979;BME280;21185;50.978;13.720;2022-08-21T20:53:07;98255.75;;;18.68;65.41
34979;BME280;21185;50.978;13.720;2022-08-21T20:58:32;98263.03;;;18.66;65.60
34979;BME280;21185;50.978;13.720;2022-08-21T21:03:40;98265.28;;;18.63;65.52
34979;BME280;21185;50.978;13.720;2022-08-21T21:09:03;98254.19;;;18.61;65.31
34979;BME280;21185;50.978;13.720;2022-08-21T21:14:15;98256.19;;;18.59;65.57
34979;BME280;21185;50.978;13.720;2022-08-21T21:24:32;98260.47;;;18.53;65.32
34979;BME280;21185;50.978;13.720;2022-08-21T21:29:42;98259.28;;;18.49;65.43
34979;BME280;21185;50.978;13.720;2022-08-21T21:34:48;98264.97;;;18.46;65.64
34979;BME280;21185;50.978;13.720;2022-08-21T21:45:24;98260.78;;;18.38;65.40
34979;BME280;21185;50.978;13.720;2022-08-21T22:01:04;98263.28;;;18.27;65.73
34979;BME280;21185;50.978;13.720;2022-08-21T22:06:22;98267.72;;;18.26;65.98
34979;BME280;21185;50.978;13.720;2022-08-21T22:16:59;98266.75;;;18.21;65.84
34979;BME280;21185;50.978;13.720;2022-08-21T22:27:21;98272.22;;;18.19;65.93
34979;BME280;21185;50.978;13.720;2022-08-21T22:32:45;98268.19;;;18.17;65.64
34979;BME280;21185;50.978;13.720;2022-08-21T22:37:57;98264.97;;;18.15;65.76
34979;BME280;21185;50.978;13.720;2022-08-21T22:43:06;98264.38;;;18.12;65.83
34979;BME280;21185;50.978;13.720;2022-08-21T22:48:09;98264.19;;;18.07;65.90
34979;BME280;21185;50.978;13.720;2022-08-21T22:53:34;98254.09;;;18.04;66.11
34979;BME280;21185;50.978;13.720;2022-08-21T22:58:55;98259.34;;;18.04;65.89
34979;BME280;21185;50.978;13.720;2022-08-21T23:04:17;98248.69;;;17.99;65.96
34979;BME280;21185;50.978;13.720;2022-08-21T23:14:28;98259.63;;;17.90;66.11
34979;BME280;21185;50.978;13.720;2022-08-21T23:35:49;98264.13;;;17.76;66.42
